Aérodrome :
LOGIN :

S'inscrire | Disclaimer

   EN    FR    IT 

 










Légende :    VFR   VFR Marginal   IFR   IFR Intensif   IFR Très Intensif
Visi : 
Plafond : 
>= 8 km
>= 3000ft
5 à 8 km
1000 à 3000 ft
1500m à 5 km
500 à 1000 ft
800 à 1500m
200 à 500 ft
< 800m
< 200 ft
Symboles :   Orages  Brouillard  Fortes neiges  Fortes précipitations  Vent > 20 kt
SIGMETs :   Divers  Orages  Givrage  Turbulence  Onde Orograph.  Cendres Volcan.







- Altitude de l'aérodrome : 84 ft
- Voir les cartes d'approche


LFBC - Cazaux

DERNIER METAR :
  • 251000Z AUTO 30009KT 210V330 9999 OVC032 16/08 Q1023 NOSIG

METARs EXPIRÉS :
  • 250930Z AUTO 26008KT 200V300 9999 OVC032 16/08 Q1023 NOSIG
  • 250900Z AUTO 27008KT 240V300 9999 OVC030 15/09 Q1023 NOSIG
  • 250830Z AUTO 29006KT 250V330 9999 OVC028/// 15/09 Q1022 NOSIG
  • 250800Z AUTO 28005KT 240V310 9999 OVC026 14/09 Q1022 NOSIG
  • 250730Z AUTO VRB03KT 9999 OVC024 14/09 Q1022 NOSIG

TAF TAF LFBC
Valide du 25 à 09h jusqu'au 26 à 09h UTC


250800Z 2509/2609 28005KT 9999 OVC025
PROB40
TEMPO 2514/2517 BKN014
Pas de NOTAMs connus pour ce terrain.



MET'MAP, la Météo Aéronautique d'un coup d'oeil ! - Copyright ORBIFLY Décembre 2007 - Disclaimer

ORBIFLY MET'MAP TEAM :

Programmation & Développement : Alexandra Zaïnal
Conception & Développement : Baudouin d'Aumeries
Co-Programmation & Développement : Marc-Olivier Méhu
Soutien technique & logistique : Manuel Goepfert

Contact : metmap@orbifly.com




SOURCES & CREDITS :

   NOAA